createdAt,value
2022-10-29T00:01:02.159Z,99310.22
2022-10-29T00:03:29.414Z,99317.84
2022-10-29T00:06:12.643Z,99305.72
2022-10-29T00:08:41.724Z,99298.19
2022-10-29T00:11:22.879Z,99307.66
2022-10-29T00:14:00.922Z,99313.31
2022-10-29T00:16:39.831Z,99306.88
2022-10-29T00:19:07.444Z,99290.09
2022-10-29T00:21:35.022Z,99298.13
2022-10-29T00:24:02.304Z,99299.13
2022-10-29T00:26:31.371Z,99297.94
2022-10-29T00:28:58.934Z,99305.41
2022-10-29T00:31:26.632Z,99305.81
2022-10-29T00:33:55.612Z,99310.44
2022-10-29T00:36:29.865Z,99302.94
2022-10-29T00:38:57.769Z,99295.75
2022-10-29T00:41:30.211Z,99303.00
2022-10-29T00:44:24.762Z,99290.13
2022-10-29T00:47:18.834Z,99296.78
2022-10-29T00:50:12.330Z,99291.66
2022-10-29T00:52:47.290Z,99287.66
2022-10-29T00:55:16.342Z,99287.38
2022-10-29T00:57:53.605Z,99283.25
2022-10-29T01:00:22.027Z,99291.94
2022-10-29T01:02:49.906Z,99290.81
2022-10-29T01:05:24.026Z,99293.22
2022-10-29T01:07:51.419Z,99302.72
2022-10-29T01:11:23.829Z,99293.47
2022-10-29T01:15:00.997Z,99299.63
2022-10-29T01:18:04.276Z,99290.03
2022-10-29T01:21:33.299Z,99289.72
2022-10-29T01:24:47.634Z,99293.88
2022-10-29T01:28:12.559Z,99292.72
2022-10-29T01:31:45.762Z,99279.53
2022-10-29T01:34:57.229Z,99277.91
2022-10-29T01:37:54.883Z,99277.16
2022-10-29T01:40:40.023Z,99270.66
2022-10-29T01:46:56.379Z,99275.47
2022-10-29T01:49:39.820Z,99276.91
2022-10-29T01:52:13.805Z,99271.34
2022-10-29T01:54:47.978Z,99269.19
2022-10-29T01:57:38.846Z,99264.88
2022-10-29T02:00:17.757Z,99253.69
2022-10-29T02:03:45.501Z,99259.72
2022-10-29T02:06:41.429Z,99261.09
2022-10-29T02:09:51.641Z,99262.53
2022-10-29T02:12:57.154Z,99257.53
2022-10-29T02:15:48.364Z,99264.09
2022-10-29T02:18:18.425Z,99265.34
2022-10-29T02:20:47.144Z,99250.06
2022-10-29T02:23:16.336Z,99256.03
2022-10-29T02:25:43.976Z,99260.84
2022-10-29T02:28:11.367Z,99254.03
2022-10-29T02:30:38.806Z,99248.09
2022-10-29T02:33:06.084Z,99253.94
2022-10-29T02:35:33.373Z,99246.22
2022-10-29T02:38:00.642Z,99246.44
2022-10-29T02:40:27.907Z,99242.91
2022-10-29T02:42:55.691Z,99231.34
2022-10-29T02:45:23.129Z,99238.03
2022-10-29T02:47:51.192Z,99236.91
2022-10-29T02:50:18.483Z,99244.34
2022-10-29T02:52:45.742Z,99238.78
2022-10-29T02:55:13.026Z,99236.47
2022-10-29T02:57:43.341Z,99233.41
2022-10-29T03:00:13.093Z,99229.81
2022-10-29T03:02:40.836Z,99232.69
2022-10-29T03:05:09.099Z,99235.00
2022-10-29T03:07:39.694Z,99226.84
2022-10-29T03:10:08.463Z,99236.13
2022-10-29T03:12:35.722Z,99223.72
2022-10-29T03:15:03.127Z,99222.28
2022-10-29T03:17:30.636Z,99217.66
2022-10-29T03:19:57.886Z,99212.69
2022-10-29T03:22:26.566Z,99217.38
2022-10-29T03:24:53.810Z,99212.09
2022-10-29T03:27:21.072Z,99214.44
2022-10-29T03:29:48.425Z,99219.00
2022-10-29T03:32:15.691Z,99218.50
2022-10-29T03:34:42.973Z,99213.41
2022-10-29T03:37:10.294Z,99215.91
2022-10-29T03:39:37.627Z,99213.97
2022-10-29T03:42:05.179Z,99210.09
2022-10-29T03:44:32.675Z,99211.09
2022-10-29T03:46:59.931Z,99204.69
2022-10-29T03:49:27.188Z,99193.16
2022-10-29T03:51:55.268Z,99215.47
2022-10-29T03:54:22.580Z,99207.88
2022-10-29T03:56:49.866Z,99211.34
2022-10-29T03:59:17.935Z,99206.59
2022-10-29T04:01:45.309Z,99214.97
2022-10-29T04:04:12.795Z,99207.03
2022-10-29T04:06:40.104Z,99211.97
2022-10-29T04:09:07.459Z,99209.13
2022-10-29T04:11:34.730Z,99218.00
2022-10-29T04:14:01.990Z,99211.28
2022-10-29T04:16:29.246Z,99210.53
2022-10-29T04:18:56.543Z,99211.25
2022-10-29T04:28:36.913Z,99211.09
2022-10-29T04:29:48.740Z,99211.88
2022-10-29T04:32:16.102Z,99225.34
2022-10-29T04:34:43.361Z,99223.31
2022-10-29T04:37:10.613Z,99217.13
2022-10-29T04:39:37.871Z,99220.28
2022-10-29T04:42:05.226Z,99211.13
2022-10-29T04:44:32.513Z,99217.84
2022-10-29T04:46:59.770Z,99220.19
2022-10-29T04:49:27.117Z,99224.38
2022-10-29T04:51:54.414Z,99221.78
2022-10-29T04:54:21.703Z,99215.59
2022-10-29T04:56:48.976Z,99217.81
2022-10-29T04:59:16.243Z,99219.81
2022-10-29T05:01:43.628Z,99217.94
2022-10-29T05:04:10.967Z,99221.53
2022-10-29T05:06:38.245Z,99211.59
2022-10-29T05:09:05.895Z,99212.28
2022-10-29T05:11:33.180Z,99210.88
2022-10-29T05:14:00.457Z,99208.31
2022-10-29T05:16:27.730Z,99203.63
2022-10-29T05:18:54.995Z,99207.59
2022-10-29T05:21:22.270Z,99207.38
2022-10-29T05:23:49.523Z,99199.59
2022-10-29T05:26:17.696Z,99184.59
2022-10-29T05:28:44.990Z,99199.03
2022-10-29T05:31:13.406Z,99187.63
2022-10-29T05:33:40.723Z,99188.56
2022-10-29T05:36:08.261Z,99187.44
2022-10-29T05:38:35.744Z,99194.25
2022-10-29T05:41:03.088Z,99178.53
2022-10-29T05:43:30.544Z,99180.19
2022-10-29T05:45:57.831Z,99180.47
2022-10-29T05:48:25.106Z,99182.22
2022-10-29T05:50:52.369Z,99185.94
2022-10-29T05:53:20.441Z,99185.91
2022-10-29T05:55:47.738Z,99184.31
2022-10-29T05:58:15.055Z,99180.34
2022-10-29T06:00:45.562Z,99182.84
2022-10-29T06:03:18.833Z,99182.75
2022-10-29T06:05:49.245Z,99188.34
2022-10-29T06:08:18.096Z,99184.84
2022-10-29T06:10:45.463Z,99182.13
2022-10-29T06:13:22.170Z,99173.28
2022-10-29T06:15:51.007Z,99174.44
2022-10-29T06:18:18.299Z,99166.19
2022-10-29T06:20:45.610Z,99173.50
2022-10-29T06:23:12.997Z,99178.47
2022-10-29T06:25:40.479Z,99171.19
2022-10-29T06:28:15.067Z,99173.19
2022-10-29T06:30:48.451Z,99167.75
2022-10-29T06:33:20.449Z,99177.91
2022-10-29T06:35:48.073Z,99175.66
2022-10-29T06:38:15.917Z,99183.88
2022-10-29T06:40:44.495Z,99177.03
2022-10-29T06:43:12.873Z,99172.78
2022-10-29T06:45:40.281Z,99177.63
2022-10-29T06:48:08.009Z,99184.38
2022-10-29T06:50:35.326Z,99180.88
2022-10-29T06:53:07.406Z,99191.56
2022-10-29T06:55:35.773Z,99184.31
2022-10-29T06:58:18.155Z,99184.41
2022-10-29T07:00:46.567Z,99190.78
2022-10-29T07:03:17.506Z,99184.09
2022-10-29T07:05:45.182Z,99191.16
2022-10-29T07:08:13.096Z,99189.63
2022-10-29T07:10:41.368Z,99187.78
2022-10-29T07:13:09.514Z,99189.25
2022-10-29T07:15:36.774Z,99183.41
2022-10-29T07:18:09.526Z,99189.84
2022-10-29T07:20:44.856Z,99195.09
2022-10-29T07:23:13.623Z,99193.03
2022-10-29T07:25:45.145Z,99196.66
2022-10-29T07:28:24.142Z,99204.66
2022-10-29T07:30:53.102Z,99197.13
2022-10-29T07:33:20.396Z,99209.19
2022-10-29T07:35:47.646Z,99200.63
2022-10-29T07:38:14.957Z,99199.25
2022-10-29T07:40:50.202Z,99207.84
2022-10-29T07:43:19.885Z,99207.78
2022-10-29T07:45:50.916Z,99200.81
2022-10-29T07:48:20.836Z,99214.31
2022-10-29T07:50:49.027Z,99208.00
2022-10-29T07:53:16.558Z,99210.41
2022-10-29T07:55:43.823Z,99206.56
2022-10-29T07:58:12.921Z,99199.19
2022-10-29T08:00:41.518Z,99188.19
2022-10-29T08:03:11.877Z,99199.84
2022-10-29T08:05:42.288Z,99199.06
2022-10-29T08:08:11.028Z,99185.53
2022-10-29T08:10:38.330Z,99204.78
2022-10-29T08:13:07.128Z,99197.66
2022-10-29T08:15:36.347Z,99190.63
2022-10-29T08:18:16.514Z,99197.00
2022-10-29T08:20:44.279Z,99196.25
2022-10-29T08:23:12.781Z,99199.13
2022-10-29T08:25:43.756Z,99191.97
2022-10-29T08:28:15.787Z,99190.00
2022-10-29T08:30:50.691Z,99187.66
2022-10-29T08:33:18.612Z,99189.28
2022-10-29T08:35:46.011Z,99184.13
2022-10-29T08:38:13.575Z,99186.91
2022-10-29T08:41:06.259Z,99181.34
2022-10-29T08:43:55.351Z,99182.16
2022-10-29T08:46:56.387Z,99185.72
2022-10-29T08:50:16.066Z,99185.31
2022-10-29T08:52:53.047Z,99182.53
2022-10-29T08:55:35.738Z,99185.34
2022-10-29T08:58:40.997Z,99185.31
2022-10-29T09:01:12.383Z,99186.06
2022-10-29T09:03:39.867Z,99180.91
2022-10-29T09:07:14.709Z,99186.03
2022-10-29T09:10:04.239Z,99178.72
2022-10-29T09:13:35.054Z,99176.28
2022-10-29T09:16:33.447Z,99190.06
2022-10-29T09:19:39.480Z,99190.75
2022-10-29T09:22:27.812Z,99188.78
2022-10-29T09:25:38.410Z,99195.50
2022-10-29T09:28:43.063Z,99206.22
2022-10-29T09:31:53.599Z,99207.00
2022-10-29T09:34:51.709Z,99205.69
2022-10-29T09:37:53.335Z,99211.16
2022-10-29T09:40:34.317Z,99206.84
2022-10-29T09:43:37.694Z,99200.38
2022-10-29T09:46:21.319Z,99207.09
2022-10-29T09:49:10.099Z,99203.81
2022-10-29T09:52:19.155Z,99198.59
2022-10-29T09:54:50.138Z,99202.91
2022-10-29T09:57:30.755Z,99199.53
2022-10-29T10:00:17.416Z,99208.94
2022-10-29T10:03:16.101Z,99212.00
2022-10-29T10:06:04.667Z,99208.78
2022-10-29T10:08:34.504Z,99200.72
2022-10-29T10:11:08.119Z,99202.72
2022-10-29T10:13:51.692Z,99210.13
2022-10-29T10:16:30.155Z,99203.06
2022-10-29T10:18:57.484Z,99207.06
2022-10-29T10:21:32.178Z,99204.97
2022-10-29T10:24:01.215Z,99202.75
2022-10-29T10:26:44.981Z,99195.78
2022-10-29T10:29:20.942Z,99195.22
2022-10-29T10:31:55.375Z,99199.63
2022-10-29T10:34:38.961Z,99195.34
2022-10-29T10:37:10.834Z,99195.28
2022-10-29T10:40:03.293Z,99186.72
2022-10-29T10:42:39.361Z,99189.38
2022-10-29T10:45:40.093Z,99177.44
2022-10-29T10:48:12.775Z,99169.59
2022-10-29T10:50:40.074Z,99174.63
2022-10-29T10:53:21.484Z,99166.31
2022-10-29T10:55:57.965Z,99167.69
2022-10-29T10:58:45.079Z,99166.13
2022-10-29T11:01:48.032Z,99152.84
2022-10-29T11:04:32.045Z,99160.38
2022-10-29T11:07:07.989Z,99157.34
2022-10-29T11:09:45.504Z,99150.16
2022-10-29T11:12:40.103Z,99150.00
2022-10-29T11:15:39.355Z,99145.97
2022-10-29T11:19:01.038Z,99136.88
2022-10-29T11:22:20.464Z,99134.88
2022-10-29T11:25:44.367Z,99130.75
2022-10-29T11:28:50.357Z,99124.75
2022-10-29T11:32:16.866Z,99121.38
2022-10-29T11:35:13.084Z,99131.94
2022-10-29T11:38:10.853Z,99121.88
2022-10-29T11:41:45.919Z,99117.38
2022-10-29T11:44:17.927Z,99119.34
2022-10-29T11:47:34.948Z,99123.97
2022-10-29T11:50:49.693Z,99111.00
2022-10-29T11:53:45.073Z,99106.53
2022-10-29T11:57:16.721Z,99102.50
2022-10-29T12:00:27.374Z,99086.28
2022-10-29T12:04:33.118Z,99093.41
2022-10-29T12:07:39.032Z,99081.03
2022-10-29T12:10:52.150Z,99083.19
2022-10-29T12:14:19.031Z,99070.66
2022-10-29T12:17:28.322Z,99065.00
2022-10-29T12:20:54.262Z,99066.88
2022-10-29T12:24:07.246Z,99053.25
2022-10-29T12:27:30.039Z,99050.84
2022-10-29T12:30:09.951Z,99049.31
2022-10-29T12:33:48.212Z,99040.34
2022-10-29T12:36:55.070Z,99045.56
2022-10-29T12:39:44.951Z,99033.13
2022-10-29T12:42:25.674Z,99029.97
2022-10-29T12:45:27.626Z,99026.09
2022-10-29T12:48:27.659Z,99024.91
2022-10-29T12:51:19.866Z,99036.19
2022-10-29T12:54:39.969Z,99017.59
2022-10-29T12:57:13.230Z,99018.94
2022-10-29T12:59:43.198Z,99020.34
2022-10-29T13:02:38.132Z,99010.53
2022-10-29T13:05:11.395Z,99009.28
2022-10-29T13:08:04.917Z,99002.53
2022-10-29T13:10:34.677Z,98997.88
2022-10-29T13:13:19.980Z,98994.88
2022-10-29T13:16:15.844Z,98991.44
2022-10-29T13:19:35.281Z,98992.72
2022-10-29T13:22:51.001Z,98987.66
2022-10-29T13:25:36.511Z,98979.13
2022-10-29T13:28:09.694Z,98982.84
2022-10-29T13:30:43.343Z,98977.94
2022-10-29T13:33:28.285Z,98976.44
2022-10-29T13:36:18.043Z,98978.84
2022-10-29T13:39:07.754Z,98975.34
2022-10-29T13:41:56.003Z,98963.38
2022-10-29T13:44:26.825Z,98968.13
2022-10-29T13:47:20.254Z,98964.41
2022-10-29T13:49:49.671Z,98961.13
2022-10-29T13:52:24.894Z,98958.28
2022-10-29T13:55:09.547Z,98954.47
2022-10-29T13:58:35.703Z,98956.94
2022-10-29T14:01:17.872Z,98954.91
2022-10-29T14:04:24.016Z,98962.38
2022-10-29T14:06:54.548Z,98962.72
2022-10-29T14:09:43.769Z,98954.56
2022-10-29T14:12:22.615Z,98947.34
2022-10-29T14:15:10.245Z,98948.81
2022-10-29T14:17:37.551Z,98943.63
2022-10-29T14:20:05.560Z,98944.13
2022-10-29T14:22:40.670Z,98943.81
2022-10-29T14:25:35.869Z,98942.00
2022-10-29T14:28:31.531Z,98940.09
2022-10-29T14:31:22.827Z,98946.59
2022-10-29T14:33:59.453Z,98936.44
2022-10-29T14:36:44.149Z,98938.94
2022-10-29T14:39:32.588Z,98938.19
2022-10-29T14:42:32.767Z,98929.59
2022-10-29T14:45:28.767Z,98932.56
2022-10-29T14:48:08.927Z,98938.84
2022-10-29T14:50:36.918Z,98934.50
2022-10-29T14:53:33.758Z,98932.94
2022-10-29T14:56:11.115Z,98935.72
2022-10-29T14:58:40.967Z,98928.81
2022-10-29T15:01:21.274Z,98924.53
2022-10-29T15:03:56.041Z,98934.09
2022-10-29T15:06:29.980Z,98923.25
2022-10-29T15:09:03.807Z,98928.28
2022-10-29T15:12:18.011Z,98931.63
2022-10-29T15:14:54.011Z,98935.25
2022-10-29T15:17:30.614Z,98930.75
2022-10-29T15:20:06.780Z,98933.25
2022-10-29T15:22:42.721Z,98931.13
2022-10-29T15:25:36.759Z,98925.69
2022-10-29T15:28:10.043Z,98930.06
2022-10-29T15:30:38.976Z,98931.75
2022-10-29T15:33:16.396Z,98926.97
2022-10-29T15:35:55.109Z,98931.13
2022-10-29T15:38:31.440Z,98933.25
2022-10-29T15:41:39.006Z,98923.56
2022-10-29T15:44:40.679Z,98929.88
2022-10-29T15:47:49.362Z,98919.25
2022-10-29T15:50:40.441Z,98922.84
2022-10-29T15:53:16.259Z,98928.50
2022-10-29T15:55:44.333Z,98921.13
2022-10-29T15:58:23.351Z,98924.09
2022-10-29T16:00:51.863Z,98926.31
2022-10-29T16:03:27.385Z,98924.63
2022-10-29T16:06:04.983Z,98923.38
2022-10-29T16:08:44.383Z,98923.81
2022-10-29T16:11:20.962Z,98921.81
2022-10-29T16:13:55.292Z,98921.03
2022-10-29T16:16:26.422Z,98929.47
2022-10-29T16:18:54.540Z,98921.13
2022-10-29T16:21:26.388Z,98914.28
2022-10-29T16:23:54.104Z,98918.09
2022-10-29T16:26:25.305Z,98923.94
2022-10-29T16:28:54.050Z,98922.16
2022-10-29T16:31:28.470Z,98918.22
2022-10-29T16:34:00.021Z,98920.44
2022-10-29T16:36:27.307Z,98910.75
2022-10-29T16:38:54.583Z,98925.94
2022-10-29T16:41:22.194Z,98923.69
2022-10-29T16:43:49.600Z,98921.53
2022-10-29T16:46:16.901Z,98927.44
2022-10-29T16:48:45.566Z,98922.69
2022-10-29T16:51:12.972Z,98927.13
2022-10-29T16:53:40.264Z,98930.09
2022-10-29T16:56:08.078Z,98927.72
2022-10-29T16:58:35.336Z,98928.13
2022-10-29T17:01:10.447Z,98932.25
2022-10-29T17:03:39.156Z,98929.06
2022-10-29T17:06:10.679Z,98929.06
2022-10-29T17:08:38.680Z,98937.78
2022-10-29T17:11:10.040Z,98937.91
2022-10-29T17:13:38.263Z,98937.84
2022-10-29T17:16:16.597Z,98932.69
2022-10-29T17:18:43.917Z,98932.63
2022-10-29T17:21:11.304Z,98935.28
2022-10-29T17:23:39.401Z,98934.97
2022-10-29T17:26:06.655Z,98934.75
2022-10-29T17:28:36.557Z,98942.78
2022-10-29T17:31:10.047Z,98939.66
2022-10-29T17:33:37.701Z,98939.00
2022-10-29T17:36:15.632Z,98939.44
2022-10-29T17:38:42.912Z,98939.94
2022-10-29T17:41:10.432Z,98938.81
2022-10-29T17:43:37.826Z,98949.97
2022-10-29T17:46:05.578Z,98953.75
2022-10-29T17:48:33.936Z,98949.72
2022-10-29T17:51:03.148Z,98949.78
2022-10-29T17:53:31.475Z,98950.00
2022-10-29T17:56:01.905Z,98953.09
2022-10-29T17:58:29.138Z,98950.91
2022-10-29T18:01:03.642Z,98960.03
2022-10-29T18:03:30.998Z,98949.94
2022-10-29T18:06:09.749Z,98956.03
2022-10-29T18:08:40.310Z,98958.72
2022-10-29T18:11:20.037Z,98950.38
2022-10-29T18:13:50.415Z,98950.59
2022-10-29T18:16:26.226Z,98958.91
2022-10-29T18:19:02.780Z,98951.44
2022-10-29T18:21:31.816Z,98952.47
2022-10-29T18:23:59.156Z,98952.84
2022-10-29T18:26:34.725Z,98959.19
2022-10-29T18:29:10.433Z,98949.59
2022-10-29T18:31:40.173Z,98958.28
2022-10-29T18:34:07.970Z,98959.66
2022-10-29T18:36:36.761Z,98953.88
2022-10-29T18:39:06.500Z,98965.22
2022-10-29T18:41:36.100Z,98960.94
2022-10-29T18:44:07.143Z,98958.94
2022-10-29T18:46:34.482Z,98960.44
2022-10-29T18:49:01.888Z,98954.91
2022-10-29T18:51:32.980Z,98956.09
2022-10-29T18:54:00.681Z,98960.19
2022-10-29T18:56:30.136Z,98965.03
2022-10-29T18:58:59.278Z,98965.78
2022-10-29T19:01:34.944Z,98957.00
2022-10-29T19:04:08.031Z,98957.84
2022-10-29T19:06:37.463Z,98969.94
2022-10-29T19:09:09.303Z,98975.94
2022-10-29T19:11:37.130Z,98974.91
2022-10-29T19:14:11.555Z,98985.75
2022-10-29T19:16:38.863Z,98977.94
2022-10-29T19:19:16.136Z,98978.81
2022-10-29T19:21:45.876Z,98981.25
2022-10-29T19:24:16.090Z,98980.56
2022-10-29T19:26:44.201Z,98983.47
2022-10-29T19:29:12.172Z,98991.31
2022-10-29T19:31:40.411Z,98999.78
2022-10-29T19:34:08.578Z,98995.03
2022-10-29T19:36:37.608Z,99016.28
2022-10-29T19:39:05.540Z,99003.63
2022-10-29T19:41:33.461Z,99010.84
2022-10-29T19:44:02.677Z,99013.72
2022-10-29T19:46:30.728Z,99015.69
2022-10-29T19:48:58.700Z,99015.97
2022-10-29T19:51:26.778Z,99008.78
2022-10-29T19:53:55.150Z,99004.06
2022-10-29T19:56:22.466Z,99016.19
2022-10-29T19:58:50.084Z,99009.72
2022-10-29T20:01:20.194Z,99017.78
2022-10-29T20:03:47.899Z,99013.88
2022-10-29T20:06:16.464Z,99013.06
2022-10-29T20:08:44.048Z,99000.38
2022-10-29T20:11:11.459Z,99020.25
2022-10-29T20:13:40.005Z,99014.31
2022-10-29T20:16:13.271Z,99004.81
2022-10-29T20:18:40.560Z,99013.56
2022-10-29T20:21:08.396Z,99016.34
2022-10-29T20:23:36.039Z,99025.06
2022-10-29T20:26:03.759Z,99013.97
2022-10-29T20:28:31.018Z,99012.47
2022-10-29T20:31:19.246Z,99019.63
2022-10-29T20:33:58.739Z,99008.44
2022-10-29T20:36:32.310Z,99018.44
2022-10-29T20:39:00.296Z,99026.00
2022-10-29T20:41:29.226Z,99022.03
2022-10-29T20:44:01.448Z,99020.09
2022-10-29T20:46:29.532Z,99018.13
2022-10-29T20:48:58.498Z,99014.50
2022-10-29T20:51:26.976Z,99015.34
2022-10-29T20:53:55.934Z,99024.59
2022-10-29T20:56:26.979Z,99029.72
2022-10-29T20:58:54.963Z,99025.81
2022-10-29T21:01:24.501Z,99019.03
2022-10-29T21:03:52.074Z,99021.41
2022-10-29T21:06:20.102Z,99033.41
2022-10-29T21:08:51.730Z,99025.44
2022-10-29T21:11:21.854Z,99021.47
2022-10-29T21:13:50.331Z,99022.16
2022-10-29T21:16:27.501Z,99029.84
2022-10-29T21:19:00.882Z,99025.47
2022-10-29T21:21:30.128Z,99028.22
2022-10-29T21:23:58.020Z,99021.84
2022-10-29T21:26:27.846Z,99027.06
2022-10-29T21:28:56.075Z,99023.09
2022-10-29T21:31:24.702Z,99027.00
2022-10-29T21:33:55.918Z,99032.22
2022-10-29T21:36:23.564Z,99022.22
2022-10-29T21:38:50.950Z,99019.47
2022-10-29T21:41:18.456Z,99021.47
2022-10-29T21:43:45.809Z,99019.50
2022-10-29T21:46:13.062Z,99012.66
2022-10-29T21:48:40.408Z,99009.50
2022-10-29T21:51:15.113Z,99017.50
2022-10-29T21:53:42.713Z,99022.28
2022-10-29T21:56:14.691Z,99020.66
2022-10-29T21:58:42.925Z,99018.28
2022-10-29T22:01:16.391Z,99011.13
2022-10-29T22:03:47.438Z,99010.31
2022-10-29T22:06:22.673Z,99016.31
2022-10-29T22:08:57.484Z,99007.94
2022-10-29T22:11:28.490Z,99010.72
2022-10-29T22:13:56.031Z,99020.31
2022-10-29T22:16:23.807Z,99021.47
2022-10-29T22:18:51.198Z,99014.31
2022-10-29T22:21:26.540Z,99019.50
2022-10-29T22:23:57.693Z,99012.72
2022-10-29T22:26:29.542Z,99013.50
2022-10-29T22:28:57.294Z,99017.50
2022-10-29T22:31:25.299Z,99015.50
2022-10-29T22:33:54.463Z,99014.31
2022-10-29T22:36:26.730Z,98993.97
2022-10-29T22:39:00.138Z,99016.28
2022-10-29T22:41:29.689Z,99016.72
2022-10-29T22:43:59.024Z,99007.94
2022-10-29T22:46:28.721Z,99011.13
2022-10-29T22:48:56.691Z,99015.91
2022-10-29T22:51:31.711Z,99005.16
2022-10-29T22:53:59.384Z,99002.38
2022-10-29T22:56:36.080Z,99007.56
2022-10-29T22:59:06.458Z,99005.53
2022-10-29T23:01:40.381Z,99003.94
2022-10-29T23:04:11.390Z,98999.16
2022-10-29T23:06:38.685Z,99005.97
2022-10-29T23:09:07.343Z,99001.56
2022-10-29T23:11:40.149Z,98998.78
2022-10-29T23:14:07.454Z,99008.34
2022-10-29T23:16:36.789Z,98996.75
2022-10-29T23:19:06.617Z,98999.97
2022-10-29T23:21:34.190Z,98996.78
2022-10-29T23:24:01.815Z,98998.38
2022-10-29T23:26:29.213Z,98992.78
2022-10-29T23:28:56.942Z,98989.56
2022-10-29T23:31:28.141Z,98994.75
2022-10-29T23:33:58.020Z,98998.34
2022-10-29T23:36:27.315Z,98986.34
2022-10-29T23:39:01.247Z,98986.75
2022-10-29T23:41:31.240Z,98993.59
2022-10-29T23:43:59.003Z,98985.63
2022-10-29T23:46:26.278Z,98986.41
2022-10-29T23:48:53.706Z,98983.66
2022-10-29T23:51:21.068Z,98985.22
2022-10-29T23:53:53.194Z,98978.84
2022-10-29T23:56:23.814Z,98976.06
2022-10-29T23:58:51.079Z,98978.06
